ADDS METAR Data INFO
IDs: Format: Raw Decoded Include TAF

Data at: 0351 UTC 18 Oct 2017

KSOW 180335Z AUTO 17005KT 10SM CLR 15/M00 A3030 RMK AO2
KSOW 180315Z AUTO 17006KT 10SM CLR 15/00 A3029 RMK AO2
KSOW 180255Z AUTO 18006KT 10SM CLR 16/M00 A3029 RMK AO2
KSOW 180235Z AUTO 18006KT 10SM CLR 15/M00 A3029 RMK AO2
KSOW 180215Z AUTO 18006KT 10SM CLR 16/M01 A3029 RMK AO2
KSOW 180155Z AUTO 18006KT 10SM CLR 17/M01 A3029 RMK AO2
KSOW 180135Z AUTO 20006KT 10SM CLR 17/M02 A3028 RMK AO2
KSOW 180115Z AUTO 21005KT 10SM CLR 18/M02 A3028 RMK AO2
KSOW 180055Z AUTO 21006KT 10SM CLR 19/M02 A3027 RMK AO2
KSOW 180035Z AUTO 23008KT 10SM CLR 21/M02 A3027 RMK AO2
KSOW 180015Z AUTO 23008KT 10SM CLR 22/M02 A3027 RMK AO2
KSOW 172355Z AUTO 23011KT 10SM CLR 23/M02 A3027 RMK AO2
KSOW 172335Z AUTO 23009KT 10SM CLR 23/M02 A3027 RMK AO2
KSOW 172315Z AUTO 21009KT 10SM CLR 24/M02 A3027 RMK AO2
KSOW 172255Z AUTO 25008KT 10SM CLR 24/M04 A3028 RMK AO2
KSOW 172235Z AUTO 21007G16KT 10SM CLR 25/M04 A3028 RMK AO2
KSOW 172215Z AUTO 24007KT 10SM CLR 25/M04 A3028 RMK AO2
KSOW 172155Z AUTO 21009G14KT 10SM CLR 25/M04 A3028 RMK AO2
KSOW 172135Z AUTO 20008G15KT 10SM CLR 25/M05 A3028 RMK AO2
KSOW 172115Z AUTO 19007G13KT 160V220 10SM CLR 25/M04 A3029 RMK AO2
KSOW 172055Z AUTO 22011KT 10SM CLR 26/M03 A3029 RMK AO2
KSOW 172035Z AUTO 23007G13KT 210V270 10SM CLR 25/M02 A3029 RMK AO2
KSOW 172015Z AUTO 21008KT 9SM CLR 24/M02 A3030 RMK AO2
KSOW 171955Z AUTO 21007KT 170V260 10SM CLR 25/M03 A3031 RMK AO2
KSOW 171935Z AUTO 29005KT 10SM CLR 24/M03 A3032 RMK AO2
KSOW 171915Z AUTO VRB04KT 9SM CLR 24/M02 A3034 RMK AO2
KSOW 171855Z AUTO 00000KT 8SM CLR 24/M02 A3035 RMK AO2
KSOW 171835Z AUTO 23005KT 9SM CLR 23/M01 A3036 RMK AO2
KSOW 171815Z AUTO VRB05KT 9SM CLR 22/M01 A3037 RMK AO2
KSOW 171755Z AUTO 06005KT 9SM CLR 22/M01 A3038 RMK AO2
KSOW 171735Z AUTO 36004KT 8SM CLR 22/M00 A3039 RMK AO2
KSOW 171715Z AUTO 00000KT 9SM CLR 21/M00 A3040 RMK AO2
KSOW 171655Z AUTO 00000KT 7SM CLR 20/00 A3040 RMK AO2
KSOW 171635Z AUTO 00000KT 8SM CLR 19/01 A3041 RMK AO2
KSOW 171615Z AUTO VRB03KT 9SM CLR 18/01 A3041 RMK AO2
KSOW 171555Z AUTO 00000KT 9SM CLR 17/00 A3041 RMK AO2
KSOW 171535Z AUTO 00000KT 9SM CLR 16/01 A3041 RMK AO2
KSOW 171515Z AUTO 00000KT 9SM CLR 14/01 A3041 RMK AO2
KSOW 171455Z AUTO 00000KT 8SM CLR 12/00 A3040 RMK AO2
KSOW 171435Z AUTO 00000KT 8SM CLR 09/00 A3040 RMK AO2
KSOW 171415Z AUTO 00000KT 9SM CLR 08/M00 A3039 RMK AO2
KSOW 171355Z AUTO 16004KT 9SM CLR 06/M01 A3039 RMK AO2
KSOW 171335Z AUTO 00000KT 10SM CLR 06/M00 A3039 RMK AO2
KSOW 171315Z AUTO 17003KT 10SM CLR 06/M01 A3039 RMK AO2
KSOW 171255Z AUTO 17005KT 10SM CLR 05/M01 A3038 RMK AO2
KSOW 171235Z AUTO 00000KT 10SM CLR 06/M01 A3038 RMK AO2
KSOW 171215Z AUTO 00000KT 10SM CLR 06/M01 A3038 RMK AO2
KSOW 171155Z AUTO 15003KT 10SM CLR 06/M00 A3038 RMK AO2
KSOW 171135Z AUTO 17005KT 10SM CLR 06/M00 A3038 RMK AO2
KSOW 171115Z AUTO 00000KT 10SM CLR 08/M00 A3038 RMK AO2
KSOW 171055Z AUTO 10005KT 10SM CLR 07/M00 A3038 RMK AO2
KSOW 171035Z AUTO 09006KT 10SM CLR 07/M00 A3038 RMK AO2
KSOW 171015Z AUTO 00000KT 10SM CLR 08/00 A3038 RMK AO2
KSOW 170955Z AUTO 00000KT 10SM CLR 08/00 A3038 RMK AO2
KSOW 170935Z AUTO 17006KT 10SM CLR 09/00 A3039 RMK AO2
KSOW 170915Z AUTO 17004KT 10SM CLR 09/00 A3039 RMK AO2
KSOW 170855Z AUTO 00000KT 10SM CLR 10/01 A3039 RMK AO2
KSOW 170835Z AUTO 00000KT 10SM CLR 10/01 A3040 RMK AO2
KSOW 170815Z AUTO 00000KT 10SM CLR 10/01 A3040 RMK AO2
KSOW 170755Z AUTO 17007KT 10SM CLR 10/01 A3040 RMK AO2
KSOW 170735Z AUTO 17005KT 10SM CLR 10/01 A3040 RMK AO2
KSOW 170715Z AUTO 18005KT 10SM CLR 11/01 A3040 RMK AO2
KSOW 170655Z AUTO 17007KT 4SM HZ CLR 12/01 A3040 RMK AO2
KSOW 170635Z AUTO 18007KT 6SM HZ CLR 12/02 A3040 RMK AO2
KSOW 170615Z AUTO 17009KT 8SM CLR 13/02 A3041 RMK AO2
KSOW 170555Z AUTO 17009KT 7SM CLR 13/02 A3041 RMK AO2
KSOW 170535Z AUTO 17009KT 9SM CLR 14/01 A3041 RMK AO2
KSOW 170515Z AUTO 17008KT 8SM CLR 14/01 A3041 RMK AO2
KSOW 170455Z AUTO 18008KT 9SM CLR 14/01 A3041 RMK AO2
KSOW 170435Z AUTO 17009KT 8SM CLR 15/01 A3041 RMK AO2
KSOW 170415Z AUTO 18009KT 10SM CLR 14/01 A3040 RMK AO2
KSOW 170355Z AUTO 18006KT 10SM CLR 14/00 A3040 RMK AO2
KSOW 170335Z AUTO 18007KT 10SM CLR 14/M00 A3040 RMK AO2
KSOW 170315Z AUTO 17007KT 10SM CLR 15/M01 A3040 RMK AO2
KSOW 170255Z AUTO 17008KT 10SM CLR 16/M02 A3040 RMK AO2
KSOW 170235Z AUTO 16007KT 10SM CLR 15/M05 A3040 RMK AO2
KSOW 170215Z AUTO 16005KT 10SM CLR 15/M06 A3039 RMK AO2
KSOW 170155Z AUTO 17005KT 10SM CLR 16/M05 A3039 RMK AO2
KSOW 170135Z AUTO 17006KT 10SM CLR 17/M06 A3039 RMK AO2
KSOW 170115Z AUTO 00000KT 10SM CLR 18/M06 A3038 RMK AO2
KSOW 170055Z AUTO 03004KT 10SM CLR 19/M06 A3038 RMK AO2
KSOW 170035Z AUTO 03005KT 10SM CLR 21/M06 A3037 RMK AO2
KSOW 170015Z AUTO 03004KT 10SM CLR 22/M06 A3037 RMK AO2
KSOW 162355Z AUTO 03006KT 10SM CLR 22/M06 A3036 RMK AO2
KSOW 162335Z AUTO 02006G11KT 10SM CLR 23/M06 A3037 RMK AO2
KSOW 162315Z AUTO 10SM CLR 23/M07 A3037 RMK AO2
KSOW 162255Z AUTO 20007KT 10SM CLR 24/M07 A3036 RMK AO2
KSOW 162235Z AUTO 10SM CLR 24/M07 A3036 RMK AO2
KSOW 162215Z AUTO 10SM CLR 24/M07 A3036 RMK AO2
KSOW 162155Z AUTO 10SM CLR 25/M07 A3037 RMK AO2
KSOW 162135Z AUTO 10SM CLR 24/M07 A3037 RMK AO2
KSOW 162115Z AUTO 10SM CLR 24/M08 A3038 RMK AO2
KSOW 162055Z AUTO 16004G10KT 10SM CLR 24/M08 A3038 RMK AO2
KSOW 162035Z AUTO 06007KT 350V070 9SM CLR 24/M08 A3039 RMK AO2
KSOW 162015Z AUTO 06005KT 4SM HZ CLR 24/M08 A3040 RMK AO2
KSOW 161955Z AUTO 03007G13KT 3SM HZ CLR 24/M08 A3041 RMK AO2
KSOW 161935Z AUTO 34008KT 5SM HZ CLR 24/M08 A3042 RMK AO2
KSOW 161915Z AUTO 36008KT 2 1/2SM HZ CLR 24/M09 A3043 RMK AO2 VIS 3/4V5
KSOW 161855Z AUTO VRB05G12KT 9SM CLR 23/M08 A3044 RMK AO2
KSOW 161835Z AUTO 31006KT 10SM CLR 23/M07 A3045 RMK AO2
KSOW 161815Z AUTO 00000KT 8SM CLR 22/M07 A3046 RMK AO2
KSOW 161755Z AUTO VRB03KT 8SM CLR 23/M07 A3047 RMK AO2
KSOW 161735Z AUTO VRB03KT 6SM HZ CLR 21/M08 A3047 RMK AO2
KSOW 161715Z AUTO 00000KT 9SM CLR 20/M09 A3048 RMK AO2
KSOW 161655Z AUTO VRB04KT 9SM CLR 19/M09 A3049 RMK AO2
KSOW 161635Z AUTO VRB03KT 10SM CLR 18/M09 A3049 RMK AO2
KSOW 161615Z AUTO 28004KT 10SM CLR 17/M09 A3049 RMK AO2
KSOW 161555Z AUTO 00000KT 10SM CLR 15/M09 A3049 RMK AO2